Portada
METAR-TAF:

METAR-TAF

Aeroports :

N'Djamena, Txad

latitud: 12-08N, longitud: 015-02E, altitud: 295 m

Observació

L'informe es va fer fa 59 minuts, a les 00:00 UTC
Vent 3 kt del Nord
Temperatura 23°C
Humitat 33%
Pressió 1008 hPa
Visibilitat: 8000 m

METAR: FTTJ 300000Z 35003KT 8000 NSC 23/06 Q1008 NOSIG

Hora: 01:59 (00:59 UTC)

Pronòstic

L'informe es va fer fa 1 hora i 59 minuts, a les 23:00 UTC
Pronòstic vàlid del 30 a les 00 UTC al 31 a les 06 UTC
Vent 5 kt amb direcció variable
Visibilitat: 8000 m
Temporalment
l' 30 a les 05 UTC al 30 a les 08 UTC
Visibilitat: 4000 m
Pols estès
Temporalment
l' 30 a les 08 UTC al 30 a les 12 UTC
Vent 10 kt del Est/Nord-Est
Temporalment
l' 30 a les 16 UTC al 30 a les 19 UTC
Visibilitat: 4000 m
Pols estès

TAF: FTTJ 292300Z 3000/3106 VRB05KT 8000 NSC TEMPO 3005/3008 4000 DU TEMPO 3008/3012 06010KT TEMPO 3016/3019 4000 DU

Observacions i pronòstics meteorològics de més de 4000 aeroports (METAR i TAF).

Les estacions disponibles són els punts grocs i vermells al mapa.

Posi el ratolí al punt desitjat per veure el nom de l'estació.

Feu clic per veure les observacions i els pronòstics meteorològics.

Per canviar el mapa: feu clic els botons verds amb una creu de color negre per apropar; al botó verd amb un guió per allunyar la imatge; o en les fletxes verdes per a mapes adjacents.


METAR-TAF: